createdAt,value
2023-03-31T00:01:29.909Z,3.42
2023-03-31T00:04:05.254Z,3.45
2023-03-31T00:06:38.351Z,3.48
2023-03-31T00:09:11.836Z,3.47
2023-03-31T00:11:40.594Z,3.49
2023-03-31T00:14:09.124Z,3.50
2023-03-31T00:16:38.091Z,3.51
2023-03-31T00:19:10.388Z,3.52
2023-03-31T00:21:42.882Z,3.55
2023-03-31T00:24:12.036Z,3.60
2023-03-31T00:26:40.492Z,3.58
2023-03-31T00:29:10.542Z,3.56
2023-03-31T00:31:39.181Z,3.57
2023-03-31T00:34:07.349Z,3.57
2023-03-31T00:36:37.004Z,3.53
2023-03-31T00:39:11.031Z,3.49
2023-03-31T00:41:39.754Z,3.48
2023-03-31T00:44:14.876Z,3.52
2023-03-31T00:47:08.039Z,3.55
2023-03-31T00:49:41.539Z,3.58
2023-03-31T00:52:22.920Z,3.62
2023-03-31T00:54:56.164Z,3.66
2023-03-31T00:57:24.903Z,3.70
2023-03-31T00:59:54.990Z,3.74
2023-03-31T01:02:25.704Z,3.78
2023-03-31T01:04:59.636Z,3.80
2023-03-31T01:07:42.777Z,3.84
2023-03-31T01:10:12.044Z,3.87
2023-03-31T01:12:42.608Z,3.89
2023-03-31T01:15:10.998Z,3.90
2023-03-31T01:17:40.802Z,3.90
2023-03-31T01:20:14.889Z,3.90
2023-03-31T01:22:59.610Z,3.90
2023-03-31T01:25:42.893Z,3.90
2023-03-31T01:28:43.605Z,3.90
2023-03-31T01:31:11.657Z,3.92
2023-03-31T01:33:50.819Z,3.93
2023-03-31T01:36:42.717Z,3.94
2023-03-31T01:39:48.822Z,3.95
2023-03-31T01:42:45.389Z,3.97
2023-03-31T01:45:33.951Z,3.96
2023-03-31T01:48:08.226Z,3.95
2023-03-31T01:50:47.570Z,3.94
2023-03-31T01:53:35.921Z,3.91
2023-03-31T01:56:16.254Z,3.89
2023-03-31T01:58:52.770Z,3.85
2023-03-31T02:01:34.431Z,3.83
2023-03-31T02:04:16.289Z,3.79
2023-03-31T02:06:47.506Z,3.76
2023-03-31T02:09:17.750Z,3.73
2023-03-31T02:11:45.956Z,3.69
2023-03-31T02:14:21.985Z,3.66
2023-03-31T02:16:52.148Z,3.62
2023-03-31T02:19:20.170Z,3.58
2023-03-31T02:21:52.619Z,3.51
2023-03-31T02:24:22.178Z,3.46
2023-03-31T02:26:56.545Z,3.41
2023-03-31T02:29:24.863Z,3.35
2023-03-31T02:31:58.825Z,3.31
2023-03-31T02:34:28.205Z,3.28
2023-03-31T02:36:56.897Z,3.22
2023-03-31T02:39:36.062Z,3.16
2023-03-31T02:42:07.609Z,3.10
2023-03-31T02:44:37.375Z,3.05
2023-03-31T02:47:13.101Z,3.02
2023-03-31T02:49:44.128Z,2.98
2023-03-31T02:52:43.549Z,2.94
2023-03-31T02:56:06.930Z,2.92
2023-03-31T02:58:54.991Z,2.90
2023-03-31T03:01:54.485Z,2.89
2023-03-31T03:04:39.528Z,2.86
2023-03-31T03:07:13.728Z,2.88
2023-03-31T03:09:43.040Z,2.88
2023-03-31T03:12:13.123Z,2.89
2023-03-31T03:14:44.672Z,2.90
2023-03-31T03:17:20.348Z,2.90
2023-03-31T03:19:53.485Z,2.90
2023-03-31T03:22:22.217Z,2.91
2023-03-31T03:24:50.980Z,2.93
2023-03-31T03:27:19.991Z,2.94
2023-03-31T03:29:49.025Z,2.96
2023-03-31T03:32:17.123Z,2.98
2023-03-31T03:34:45.462Z,3.00
2023-03-31T03:37:13.484Z,3.01
2023-03-31T03:39:41.934Z,3.02
2023-03-31T03:42:09.932Z,3.01
2023-03-31T03:44:39.678Z,3.00
2023-03-31T03:47:07.713Z,2.99
2023-03-31T03:49:36.826Z,2.98
2023-03-31T03:52:05.588Z,2.97
2023-03-31T03:54:33.870Z,2.98
2023-03-31T03:57:02.525Z,2.97
2023-03-31T03:59:30.819Z,2.97
2023-03-31T04:02:03.469Z,2.98
2023-03-31T04:04:32.380Z,2.98
2023-03-31T04:07:00.907Z,3.00
2023-03-31T04:09:29.258Z,3.01
2023-03-31T04:11:58.878Z,3.01
2023-03-31T04:14:27.393Z,3.01
2023-03-31T04:17:00.732Z,3.01
2023-03-31T04:19:28.765Z,3.01
2023-03-31T04:22:03.155Z,3.01
2023-03-31T04:24:33.421Z,3.03
2023-03-31T04:27:03.339Z,3.05
2023-03-31T04:29:37.377Z,3.09
2023-03-31T04:32:06.578Z,3.10
2023-03-31T04:34:37.478Z,3.11
2023-03-31T04:37:10.777Z,3.10
2023-03-31T04:39:39.190Z,3.08
2023-03-31T04:42:07.115Z,3.09
2023-03-31T04:44:35.475Z,3.10
2023-03-31T04:47:03.973Z,3.12
2023-03-31T04:49:36.025Z,3.13
2023-03-31T04:52:04.171Z,3.11
2023-03-31T04:54:37.945Z,3.10
2023-03-31T04:57:06.666Z,3.10
2023-03-31T04:59:34.752Z,3.11
2023-03-31T05:02:04.558Z,3.14
2023-03-31T05:04:33.111Z,3.16
2023-03-31T05:07:01.461Z,3.16
2023-03-31T05:09:29.735Z,3.18
2023-03-31T05:12:00.750Z,3.21
2023-03-31T05:14:32.007Z,3.24
2023-03-31T05:17:00.079Z,3.28
2023-03-31T05:19:29.161Z,3.31
2023-03-31T05:21:57.398Z,3.34
2023-03-31T05:24:26.053Z,3.37
2023-03-31T05:26:54.880Z,3.39
2023-03-31T05:29:24.175Z,3.41
2023-03-31T05:31:54.069Z,3.43
2023-03-31T05:34:22.232Z,3.44
2023-03-31T05:36:53.638Z,3.46
2023-03-31T05:39:22.154Z,3.47
2023-03-31T05:41:51.114Z,3.50
2023-03-31T05:44:20.910Z,3.54
2023-03-31T05:46:49.297Z,3.58
2023-03-31T05:49:17.570Z,3.65
2023-03-31T05:51:47.006Z,3.72
2023-03-31T05:54:15.038Z,3.81
2023-03-31T05:56:44.025Z,3.87
2023-03-31T05:59:15.002Z,3.88
2023-03-31T06:01:47.748Z,3.91
2023-03-31T06:04:16.421Z,3.98
2023-03-31T06:06:46.219Z,4.05
2023-03-31T06:09:17.736Z,4.12
2023-03-31T06:11:47.589Z,4.18
2023-03-31T06:14:16.973Z,4.26
2023-03-31T06:16:45.001Z,4.32
2023-03-31T06:19:13.261Z,4.34
2023-03-31T06:21:41.546Z,4.31
2023-03-31T06:24:13.116Z,4.31
2023-03-31T06:26:41.688Z,4.34
2023-03-31T06:29:14.449Z,4.37
2023-03-31T06:31:42.905Z,4.43
2023-03-31T06:34:11.331Z,4.51
2023-03-31T06:36:39.578Z,4.60
2023-03-31T06:39:07.687Z,4.70
2023-03-31T06:41:37.508Z,4.82
2023-03-31T06:44:06.184Z,4.87
2023-03-31T06:46:36.019Z,4.92
2023-03-31T06:49:04.447Z,5.00
2023-03-31T06:51:34.296Z,5.12
2023-03-31T06:54:11.943Z,5.22
2023-03-31T06:56:40.892Z,5.33
2023-03-31T06:59:09.272Z,5.42
2023-03-31T07:01:39.295Z,5.51
2023-03-31T07:04:12.652Z,5.64
2023-03-31T07:06:41.529Z,5.79
2023-03-31T07:09:09.597Z,5.94
2023-03-31T07:11:41.529Z,6.11
2023-03-31T07:14:10.408Z,6.24
2023-03-31T07:16:39.069Z,6.39
2023-03-31T07:19:11.379Z,6.52
2023-03-31T07:21:40.239Z,6.68
2023-03-31T07:24:08.336Z,6.83
2023-03-31T07:26:36.427Z,6.90
2023-03-31T07:29:04.948Z,6.93
2023-03-31T07:31:37.970Z,6.97
2023-03-31T07:34:06.322Z,7.00
2023-03-31T07:36:34.772Z,7.04
2023-03-31T07:39:04.634Z,7.04
2023-03-31T07:41:33.137Z,7.05
2023-03-31T07:44:03.284Z,7.08
2023-03-31T07:46:31.542Z,7.08
2023-03-31T07:49:03.272Z,7.12
2023-03-31T07:51:34.403Z,7.21
2023-03-31T07:54:03.210Z,7.26
2023-03-31T07:56:33.375Z,7.26
2023-03-31T07:59:01.933Z,7.25
2023-03-31T08:01:30.391Z,7.24
2023-03-31T08:03:59.473Z,7.26
2023-03-31T08:06:29.208Z,7.30
2023-03-31T08:08:58.041Z,7.32
2023-03-31T08:11:26.425Z,7.31
2023-03-31T08:13:55.651Z,7.32
2023-03-31T08:16:24.145Z,7.32
2023-03-31T08:18:54.388Z,7.31
2023-03-31T08:21:24.416Z,7.31
2023-03-31T08:23:56.050Z,7.31
2023-03-31T08:26:27.415Z,7.32
2023-03-31T08:28:55.693Z,7.37
2023-03-31T08:31:26.710Z,7.40
2023-03-31T08:33:55.787Z,7.38
2023-03-31T08:36:23.894Z,7.38
2023-03-31T08:38:52.181Z,7.42
2023-03-31T08:41:35.473Z,7.45
2023-03-31T08:44:07.521Z,7.49
2023-03-31T08:46:35.916Z,7.53
2023-03-31T08:49:04.260Z,7.62
2023-03-31T08:51:36.674Z,7.68
2023-03-31T08:54:15.004Z,7.73
2023-03-31T08:56:46.064Z,7.81
2023-03-31T08:59:31.677Z,7.90
2023-03-31T09:02:39.205Z,7.97
2023-03-31T09:05:20.091Z,7.99
2023-03-31T09:07:55.690Z,8.01
2023-03-31T09:10:58.647Z,8.04
2023-03-31T09:13:58.297Z,8.09
2023-03-31T09:16:39.067Z,8.10
2023-03-31T09:19:15.242Z,8.08
2023-03-31T09:21:44.863Z,8.04
2023-03-31T09:24:44.277Z,8.04
2023-03-31T09:27:12.367Z,8.07
2023-03-31T09:29:48.141Z,8.11
2023-03-31T09:32:22.739Z,8.16
2023-03-31T09:34:57.707Z,8.25
2023-03-31T09:37:27.624Z,8.32
2023-03-31T09:40:07.548Z,8.38
2023-03-31T09:42:36.716Z,8.40
2023-03-31T09:45:05.189Z,8.40
2023-03-31T09:47:43.020Z,8.38
2023-03-31T09:50:11.582Z,8.40
2023-03-31T09:52:44.608Z,8.45
2023-03-31T09:55:36.479Z,8.50
2023-03-31T09:58:08.258Z,8.51
2023-03-31T10:00:37.947Z,8.56
2023-03-31T10:03:09.281Z,8.61
2023-03-31T10:05:41.196Z,8.65
2023-03-31T10:08:24.355Z,8.71
2023-03-31T10:11:03.190Z,8.81
2023-03-31T10:13:40.118Z,8.91
2023-03-31T10:16:12.866Z,8.92
2023-03-31T10:18:43.162Z,8.94
2023-03-31T10:21:24.684Z,8.95
2023-03-31T10:23:54.314Z,8.97
2023-03-31T10:26:24.266Z,9.00
2023-03-31T10:28:52.842Z,9.01
2023-03-31T10:31:26.201Z,9.00
2023-03-31T10:33:54.419Z,9.03
2023-03-31T10:36:24.749Z,9.07
2023-03-31T10:38:52.723Z,9.06
2023-03-31T10:41:24.016Z,9.07
2023-03-31T10:43:52.806Z,9.06
2023-03-31T10:46:21.200Z,9.03
2023-03-31T10:48:49.344Z,9.04
2023-03-31T10:51:20.256Z,9.10
2023-03-31T10:53:56.491Z,9.15
2023-03-31T10:56:35.451Z,9.15
2023-03-31T10:59:24.968Z,9.16
2023-03-31T11:02:31.741Z,9.22
2023-03-31T11:05:15.499Z,9.30
2023-03-31T11:07:48.867Z,9.37
2023-03-31T11:10:32.549Z,9.43
2023-03-31T11:13:27.072Z,9.42
2023-03-31T11:16:06.058Z,9.37
2023-03-31T11:18:46.186Z,9.34
2023-03-31T11:21:28.476Z,9.33
2023-03-31T11:23:57.848Z,9.34
2023-03-31T11:26:48.977Z,9.34
2023-03-31T11:29:20.321Z,9.35
2023-03-31T11:31:59.262Z,9.42
2023-03-31T11:34:55.144Z,9.55
2023-03-31T11:38:02.707Z,9.78
2023-03-31T11:40:58.015Z,10.09
2023-03-31T11:43:47.364Z,10.34
2023-03-31T11:46:19.559Z,10.40
2023-03-31T11:48:59.255Z,10.41
2023-03-31T11:51:52.766Z,10.31
2023-03-31T11:54:25.502Z,10.19
2023-03-31T11:56:53.812Z,10.15
2023-03-31T11:59:22.554Z,10.06
2023-03-31T12:01:57.977Z,9.96
2023-03-31T12:04:38.022Z,9.92
2023-03-31T12:07:33.402Z,9.91
2023-03-31T12:10:21.323Z,9.91
2023-03-31T12:13:34.049Z,9.96
2023-03-31T12:16:04.916Z,10.05
2023-03-31T12:18:37.115Z,10.03
2023-03-31T12:21:06.480Z,9.98
2023-03-31T12:23:39.564Z,9.93
2023-03-31T12:26:29.527Z,9.86
2023-03-31T12:29:03.568Z,9.81
2023-03-31T12:31:33.264Z,9.75
2023-03-31T12:34:03.232Z,9.61
2023-03-31T12:36:49.115Z,9.55
2023-03-31T12:39:27.566Z,9.56
2023-03-31T12:42:15.673Z,9.61
2023-03-31T12:44:57.182Z,9.67
2023-03-31T12:47:33.829Z,9.70
2023-03-31T12:50:24.006Z,9.68
2023-03-31T12:53:31.383Z,9.62
2023-03-31T12:55:59.742Z,9.53
2023-03-31T12:58:32.377Z,9.49
2023-03-31T13:01:01.754Z,9.45
2023-03-31T13:03:46.325Z,9.43
2023-03-31T13:06:29.736Z,9.38
2023-03-31T13:08:58.944Z,9.36
2023-03-31T13:11:31.355Z,9.32
2023-03-31T13:14:01.904Z,9.29
2023-03-31T13:16:31.368Z,9.26
2023-03-31T13:18:59.465Z,9.28
2023-03-31T13:21:27.791Z,9.25
2023-03-31T13:24:00.664Z,9.23
2023-03-31T13:26:46.804Z,9.24
2023-03-31T13:29:29.130Z,9.26
2023-03-31T13:32:03.665Z,9.30
2023-03-31T13:34:36.318Z,9.31
2023-03-31T13:37:22.996Z,9.31
2023-03-31T13:40:08.451Z,9.25
2023-03-31T13:42:46.309Z,9.15
2023-03-31T13:45:17.193Z,9.08
2023-03-31T13:47:56.682Z,9.01
2023-03-31T13:51:02.814Z,8.95
2023-03-31T13:53:40.517Z,8.88
2023-03-31T13:56:46.279Z,8.81
2023-03-31T13:59:23.358Z,8.79
2023-03-31T14:02:20.822Z,8.77
2023-03-31T14:05:07.690Z,8.69
2023-03-31T14:07:49.882Z,8.59
2023-03-31T14:10:30.306Z,8.47
2023-03-31T14:13:13.130Z,8.37
2023-03-31T14:15:49.364Z,8.28
2023-03-31T14:18:31.048Z,8.24
2023-03-31T14:21:03.440Z,8.22
2023-03-31T14:23:47.169Z,8.17
2023-03-31T14:26:28.644Z,8.09
2023-03-31T14:29:03.755Z,7.99
2023-03-31T14:31:38.160Z,7.88
2023-03-31T14:34:37.515Z,7.83
2023-03-31T14:37:08.386Z,7.74
2023-03-31T14:39:45.506Z,7.67
2023-03-31T14:42:15.469Z,7.64
2023-03-31T14:44:47.798Z,7.56
2023-03-31T14:47:25.121Z,7.52
2023-03-31T14:50:13.666Z,7.44
2023-03-31T14:52:47.478Z,7.37
2023-03-31T14:55:16.677Z,7.25
2023-03-31T14:57:46.388Z,7.19
2023-03-31T15:00:15.951Z,7.13
2023-03-31T15:02:46.407Z,7.09
2023-03-31T15:05:28.096Z,7.01
2023-03-31T15:08:00.250Z,6.94
2023-03-31T15:10:33.644Z,6.91
2023-03-31T15:13:07.451Z,6.86
2023-03-31T15:15:36.837Z,6.79
2023-03-31T15:18:05.805Z,6.76
2023-03-31T15:20:38.168Z,6.73
2023-03-31T15:23:25.989Z,6.66
2023-03-31T15:25:59.214Z,6.58
2023-03-31T15:28:29.694Z,6.56
2023-03-31T15:31:09.646Z,6.54
2023-03-31T15:33:46.293Z,6.49
2023-03-31T15:36:14.423Z,6.45
2023-03-31T15:38:43.135Z,6.44
2023-03-31T15:41:16.804Z,6.43
2023-03-31T15:43:52.970Z,6.41
2023-03-31T15:46:51.422Z,6.37
2023-03-31T15:49:24.394Z,6.34
2023-03-31T15:51:53.387Z,6.32
2023-03-31T15:54:36.324Z,6.33
2023-03-31T15:57:06.073Z,6.32
2023-03-31T16:02:43.112Z,6.27
2023-03-31T16:05:43.724Z,6.25
2023-03-31T16:08:38.235Z,6.26
2023-03-31T16:11:20.404Z,6.28
2023-03-31T16:13:53.812Z,6.28
2023-03-31T16:16:23.544Z,6.29
2023-03-31T16:18:54.511Z,6.29
2023-03-31T16:21:26.737Z,6.29
2023-03-31T16:23:57.039Z,6.30
2023-03-31T16:26:28.575Z,6.30
2023-03-31T16:28:57.770Z,6.30
2023-03-31T16:31:36.925Z,6.31
2023-03-31T16:34:06.834Z,6.32
2023-03-31T16:36:35.570Z,6.31
2023-03-31T16:39:05.396Z,6.31
2023-03-31T16:41:34.554Z,6.30
2023-03-31T16:44:02.868Z,6.29
2023-03-31T16:46:31.456Z,6.28
2023-03-31T16:48:59.964Z,6.26
2023-03-31T16:51:28.506Z,6.25
2023-03-31T16:56:48.086Z,6.29
2023-03-31T16:59:16.476Z,6.30
2023-03-31T17:01:45.865Z,6.32
2023-03-31T17:04:14.552Z,6.32
2023-03-31T17:06:42.577Z,6.33
2023-03-31T17:09:11.372Z,6.35
2023-03-31T17:11:41.426Z,6.37
2023-03-31T17:14:11.126Z,6.36
2023-03-31T17:16:48.036Z,6.37
2023-03-31T17:19:17.468Z,6.39
2023-03-31T17:21:46.001Z,6.41
2023-03-31T17:24:14.754Z,6.41
2023-03-31T17:26:43.455Z,6.41
2023-03-31T17:29:15.475Z,6.42
2023-03-31T17:31:45.569Z,6.43
2023-03-31T17:34:14.109Z,6.46
2023-03-31T17:36:44.463Z,6.48
2023-03-31T17:39:13.478Z,6.49
2023-03-31T17:41:41.982Z,6.50
2023-03-31T17:44:10.997Z,6.51
2023-03-31T17:46:39.481Z,6.52
2023-03-31T17:49:08.392Z,6.52
2023-03-31T17:51:36.712Z,6.54
2023-03-31T17:54:05.862Z,6.54
2023-03-31T17:56:34.738Z,6.56
2023-03-31T17:59:03.663Z,6.55
2023-03-31T18:01:32.719Z,6.56
2023-03-31T18:04:00.851Z,6.57
2023-03-31T18:06:28.896Z,6.59
2023-03-31T18:08:57.170Z,6.62
2023-03-31T18:11:26.060Z,6.63
2023-03-31T18:14:02.136Z,6.65
2023-03-31T18:16:31.510Z,6.66
2023-03-31T18:18:59.876Z,6.69
2023-03-31T18:21:35.136Z,6.69
2023-03-31T18:24:03.976Z,6.72
2023-03-31T18:26:32.417Z,6.74
2023-03-31T18:29:04.853Z,6.74
2023-03-31T18:31:42.719Z,6.76
2023-03-31T18:34:13.735Z,6.76
2023-03-31T18:36:43.641Z,6.78
2023-03-31T18:39:12.338Z,6.79
2023-03-31T18:41:45.815Z,6.79
2023-03-31T18:44:16.900Z,6.82
2023-03-31T18:46:45.809Z,6.83
2023-03-31T18:49:15.484Z,6.84
2023-03-31T18:51:43.669Z,6.85
2023-03-31T18:54:12.190Z,6.86
2023-03-31T18:56:41.465Z,6.86
2023-03-31T18:59:11.027Z,6.88
2023-03-31T19:01:40.503Z,6.90
2023-03-31T19:04:09.576Z,6.90
2023-03-31T19:06:37.725Z,6.91
2023-03-31T19:09:06.573Z,6.90
2023-03-31T19:11:34.645Z,6.92
2023-03-31T19:14:02.942Z,6.94
2023-03-31T19:16:51.129Z,6.94
2023-03-31T19:19:20.168Z,6.96
2023-03-31T19:21:49.583Z,6.96
2023-03-31T19:24:20.989Z,6.97
2023-03-31T19:26:56.911Z,6.98
2023-03-31T19:29:27.560Z,7.02
2023-03-31T19:32:01.783Z,7.03
2023-03-31T19:34:30.545Z,7.04
2023-03-31T19:36:59.004Z,7.04
2023-03-31T19:39:29.675Z,7.05
2023-03-31T19:41:57.733Z,7.05
2023-03-31T19:44:25.815Z,7.06
2023-03-31T19:46:54.334Z,7.08
2023-03-31T19:49:26.910Z,7.10
2023-03-31T19:51:56.778Z,7.12
2023-03-31T19:54:25.042Z,7.14
2023-03-31T19:56:53.270Z,7.15
2023-03-31T19:59:22.114Z,7.15
2023-03-31T20:01:50.616Z,7.15
2023-03-31T20:04:21.232Z,7.16
2023-03-31T20:06:49.713Z,7.18
2023-03-31T20:09:17.897Z,7.17
2023-03-31T20:11:48.396Z,7.18
2023-03-31T20:14:18.139Z,7.19
2023-03-31T20:16:53.058Z,7.21
2023-03-31T20:19:23.375Z,7.24
2023-03-31T20:21:54.434Z,7.26
2023-03-31T20:24:23.334Z,7.27
2023-03-31T20:26:52.029Z,7.26
2023-03-31T20:29:20.184Z,7.27
2023-03-31T20:31:50.480Z,7.24
2023-03-31T20:34:18.993Z,7.22
2023-03-31T20:36:49.364Z,7.22
2023-03-31T20:39:18.578Z,7.22
2023-03-31T20:41:47.507Z,7.21
2023-03-31T20:44:16.086Z,7.21
2023-03-31T20:46:44.717Z,7.23
2023-03-31T20:49:13.377Z,7.24
2023-03-31T20:51:42.812Z,7.24
2023-03-31T20:54:12.144Z,7.20
2023-03-31T20:56:40.775Z,7.18
2023-03-31T20:59:11.743Z,7.16
2023-03-31T21:01:40.045Z,7.14
2023-03-31T21:04:11.160Z,7.14
2023-03-31T21:06:43.651Z,7.15
2023-03-31T21:09:12.893Z,7.17
2023-03-31T21:11:44.387Z,7.18
2023-03-31T21:14:14.284Z,7.20
2023-03-31T21:16:42.893Z,7.22
2023-03-31T21:19:11.767Z,7.23
2023-03-31T21:21:41.547Z,7.24
2023-03-31T21:24:11.469Z,7.24
2023-03-31T21:26:40.863Z,7.24
2023-03-31T21:29:11.933Z,7.22
2023-03-31T21:31:42.140Z,7.19
2023-03-31T21:34:11.824Z,7.16
2023-03-31T21:36:40.191Z,7.12
2023-03-31T21:39:09.884Z,7.07
2023-03-31T21:41:39.981Z,7.01
2023-03-31T21:44:09.149Z,6.94
2023-03-31T21:46:37.776Z,6.88
2023-03-31T21:49:06.502Z,6.85
2023-03-31T21:51:34.579Z,6.81
2023-03-31T21:54:03.118Z,6.76
2023-03-31T21:56:31.959Z,6.73
2023-03-31T21:59:04.380Z,6.70
2023-03-31T22:01:32.721Z,6.65
2023-03-31T22:04:01.667Z,6.62
2023-03-31T22:06:30.795Z,6.60
2023-03-31T22:08:58.928Z,6.60
2023-03-31T22:11:28.763Z,6.59
2023-03-31T22:13:58.088Z,6.56
2023-03-31T22:16:26.825Z,6.55
2023-03-31T22:18:55.957Z,6.55
2023-03-31T22:21:41.130Z,6.56
2023-03-31T22:24:10.939Z,6.58
2023-03-31T22:26:39.174Z,6.59
2023-03-31T22:29:14.314Z,6.58
2023-03-31T22:31:44.037Z,6.56
2023-03-31T22:34:13.047Z,6.53
2023-03-31T22:36:41.256Z,6.49
2023-03-31T22:39:10.425Z,6.48
2023-03-31T22:41:38.472Z,6.47
2023-03-31T22:44:07.189Z,6.44
2023-03-31T22:46:36.341Z,6.43
2023-03-31T22:49:04.636Z,6.42
2023-03-31T22:51:34.746Z,6.41
2023-03-31T22:54:03.086Z,6.40
2023-03-31T22:56:32.099Z,6.38
2023-03-31T22:59:00.653Z,6.39
2023-03-31T23:01:29.096Z,6.40
2023-03-31T23:03:57.413Z,6.40
2023-03-31T23:06:25.874Z,6.38
2023-03-31T23:08:54.216Z,6.37
2023-03-31T23:11:23.095Z,6.37
2023-03-31T23:13:52.557Z,6.37
2023-03-31T23:16:22.537Z,6.37
2023-03-31T23:18:51.928Z,6.39
2023-03-31T23:21:27.931Z,6.41
2023-03-31T23:23:57.444Z,6.42
2023-03-31T23:26:30.439Z,6.43
2023-03-31T23:28:58.921Z,6.45
2023-03-31T23:31:28.954Z,6.48
2023-03-31T23:33:57.866Z,6.49
2023-03-31T23:36:26.882Z,6.51
2023-03-31T23:38:59.337Z,6.55
2023-03-31T23:41:27.479Z,6.56
2023-03-31T23:43:57.880Z,6.57
2023-03-31T23:46:26.906Z,6.58
2023-03-31T23:48:55.901Z,6.60
2023-03-31T23:51:24.316Z,6.61
2023-03-31T23:53:52.975Z,6.65
2023-03-31T23:56:25.601Z,6.66
2023-03-31T23:58:53.714Z,6.70
